Terminal Aerodrome Forecast
Issued by NWS Cleveland, OH

Home | Current Version | Previous Version | Graphics & Text | Print | Product List | Glossary On
Versions: 1 2 3 4 5 6 7 8 9 10 11 12 13 14 15 16 17 18
367
FTUS41 KCLE 210341 AAA
TAFYNG
TAF AMD
KYNG 210341Z 2104/2124 34015G25KT 3SM -SHRA OVC035
      TEMPO 2104/2105 2SM -SHRA OVC025
     FM210500 28010KT P6SM VCSH BKN040 OVC080
     FM211200 24004KT P6SM BKN040=

USA.gov is the U.S. government's official web portal to all federal, state and local government web resources and services.